sensor_id;sensor_type;location;lat;lon;timestamp;temperature;humidity
79467;SHT30;68933;49.726;9.226;2024-03-02T00:00:57;7;73
79467;SHT30;68933;49.726;9.226;2024-03-02T00:03:11;7;73
79467;SHT30;68933;49.726;9.226;2024-03-02T00:05:23;7;73
79467;SHT30;68933;49.726;9.226;2024-03-02T00:07:36;7;73
79467;SHT30;68933;49.726;9.226;2024-03-02T00:09:50;7;73
79467;SHT30;68933;49.726;9.226;2024-03-02T00:12:02;6.9;73
79467;SHT30;68933;49.726;9.226;2024-03-02T00:14:15;6.9;73
79467;SHT30;68933;49.726;9.226;2024-03-02T00:16:29;6.9;73
79467;SHT30;68933;49.726;9.226;2024-03-02T00:18:41;6.9;73
79467;SHT30;68933;49.726;9.226;2024-03-02T00:20:54;6.9;73
79467;SHT30;68933;49.726;9.226;2024-03-02T00:23:08;6.8;73
79467;SHT30;68933;49.726;9.226;2024-03-02T00:25:19;6.8;73
79467;SHT30;68933;49.726;9.226;2024-03-02T00:33:16;6.8;73
79467;SHT30;68933;49.726;9.226;2024-03-02T00:35:29;6.7;74
79467;SHT30;68933;49.726;9.226;2024-03-02T00:37:42;6.7;74
79467;SHT30;68933;49.726;9.226;2024-03-02T00:39:55;6.7;74
79467;SHT30;68933;49.726;9.226;2024-03-02T00:42:08;6.7;74
79467;SHT30;68933;49.726;9.226;2024-03-02T00:44:21;6.7;74
79467;SHT30;68933;49.726;9.226;2024-03-02T00:46:34;6.7;74
79467;SHT30;68933;49.726;9.226;2024-03-02T00:48:50;6.6;73
79467;SHT30;68933;49.726;9.226;2024-03-02T00:51:00;6.6;73
79467;SHT30;68933;49.726;9.226;2024-03-02T00:53:13;6.6;73
79467;SHT30;68933;49.726;9.226;2024-03-02T00:55:26;6.6;73
79467;SHT30;68933;49.726;9.226;2024-03-02T00:57:39;6.6;73
79467;SHT30;68933;49.726;9.226;2024-03-02T00:59:52;6.5;74
79467;SHT30;68933;49.726;9.226;2024-03-02T01:02:05;6.5;74
79467;SHT30;68933;49.726;9.226;2024-03-02T01:04:18;6.5;74
79467;SHT30;68933;49.726;9.226;2024-03-02T01:06:31;6.5;74
79467;SHT30;68933;49.726;9.226;2024-03-02T01:08:44;6.5;73
79467;SHT30;68933;49.726;9.226;2024-03-02T01:10:57;6.5;73
79467;SHT30;68933;49.726;9.226;2024-03-02T01:13:10;6.5;73
79467;SHT30;68933;49.726;9.226;2024-03-02T01:15:23;6.4;73
79467;SHT30;68933;49.726;9.226;2024-03-02T01:17:36;6.4;73
79467;SHT30;68933;49.726;9.226;2024-03-02T01:19:49;6.4;73
79467;SHT30;68933;49.726;9.226;2024-03-02T01:22:02;6.4;73
79467;SHT30;68933;49.726;9.226;2024-03-02T01:24:15;6.4;73
79467;SHT30;68933;49.726;9.226;2024-03-02T01:26:28;6.4;73
79467;SHT30;68933;49.726;9.226;2024-03-02T01:28:41;6.3;73
79467;SHT30;68933;49.726;9.226;2024-03-02T01:30:54;6.3;73
79467;SHT30;68933;49.726;9.226;2024-03-02T01:33:07;6.3;73
79467;SHT30;68933;49.726;9.226;2024-03-02T01:35:20;6.3;73
79467;SHT30;68933;49.726;9.226;2024-03-02T01:37:33;6.3;73
79467;SHT30;68933;49.726;9.226;2024-03-02T01:39:46;6.2;73
79467;SHT30;68933;49.726;9.226;2024-03-02T01:41:59;6.2;73
79467;SHT30;68933;49.726;9.226;2024-03-02T01:44:12;6.2;73
79467;SHT30;68933;49.726;9.226;2024-03-02T01:46:25;6.2;73
79467;SHT30;68933;49.726;9.226;2024-03-02T01:48:38;6.1;73
79467;SHT30;68933;49.726;9.226;2024-03-02T01:50:51;6.1;73
79467;SHT30;68933;49.726;9.226;2024-03-02T01:53:04;6.1;73
79467;SHT30;68933;49.726;9.226;2024-03-02T01:55:17;6.1;73
79467;SHT30;68933;49.726;9.226;2024-03-02T01:57:30;6.1;73
79467;SHT30;68933;49.726;9.226;2024-03-02T01:59:43;6;73
79467;SHT30;68933;49.726;9.226;2024-03-02T02:01:56;6;73
79467;SHT30;68933;49.726;9.226;2024-03-02T02:04:09;6;73
79467;SHT30;68933;49.726;9.226;2024-03-02T02:06:22;6;73
79467;SHT30;68933;49.726;9.226;2024-03-02T02:08:36;5.9;73
79467;SHT30;68933;49.726;9.226;2024-03-02T02:10:48;5.9;73
79467;SHT30;68933;49.726;9.226;2024-03-02T02:13:01;5.9;73
79467;SHT30;68933;49.726;9.226;2024-03-02T02:15:21;5.9;73
79467;SHT30;68933;49.726;9.226;2024-03-02T02:17:27;5.9;73
79467;SHT30;68933;49.726;9.226;2024-03-02T02:19:40;5.8;73
79467;SHT30;68933;49.726;9.226;2024-03-02T02:21:53;5.8;73
79467;SHT30;68933;49.726;9.226;2024-03-02T02:24:06;5.8;73
79467;SHT30;68933;49.726;9.226;2024-03-02T02:26:19;5.8;73
79467;SHT30;68933;49.726;9.226;2024-03-02T02:28:32;5.7;74
79467;SHT30;68933;49.726;9.226;2024-03-02T02:30:45;5.7;74
79467;SHT30;68933;49.726;9.226;2024-03-02T02:32:58;5.7;74
79467;SHT30;68933;49.726;9.226;2024-03-02T02:35:11;5.6;74
79467;SHT30;68933;49.726;9.226;2024-03-02T02:37:24;5.6;74
79467;SHT30;68933;49.726;9.226;2024-03-02T02:39:37;5.6;74
79467;SHT30;68933;49.726;9.226;2024-03-02T02:41:50;5.6;74
79467;SHT30;68933;49.726;9.226;2024-03-02T02:44:03;5.6;74
79467;SHT30;68933;49.726;9.226;2024-03-02T02:46:16;5.5;74
79467;SHT30;68933;49.726;9.226;2024-03-02T02:48:29;5.5;74
79467;SHT30;68933;49.726;9.226;2024-03-02T02:50:42;5.5;74
79467;SHT30;68933;49.726;9.226;2024-03-02T02:52:55;5.5;74
79467;SHT30;68933;49.726;9.226;2024-03-02T02:55:08;5;78
79467;SHT30;68933;49.726;9.226;2024-03-02T02:57:21;5;78
79467;SHT30;68933;49.726;9.226;2024-03-02T02:59:35;5;78
79467;SHT30;68933;49.726;9.226;2024-03-02T03:01:47;4.9;78
79467;SHT30;68933;49.726;9.226;2024-03-02T03:04:00;4.9;78
79467;SHT30;68933;49.726;9.226;2024-03-02T03:06:13;4.8;78
79467;SHT30;68933;49.726;9.226;2024-03-02T03:08:26;4.8;78
79467;SHT30;68933;49.726;9.226;2024-03-02T03:10:39;4.8;78
79467;SHT30;68933;49.726;9.226;2024-03-02T03:12:52;4.9;78
79467;SHT30;68933;49.726;9.226;2024-03-02T03:15:05;4.9;78
79467;SHT30;68933;49.726;9.226;2024-03-02T03:17:18;4.9;78
79467;SHT30;68933;49.726;9.226;2024-03-02T03:19:31;4.9;78
79467;SHT30;68933;49.726;9.226;2024-03-02T03:21:44;4.9;77
79467;SHT30;68933;49.726;9.226;2024-03-02T03:23:57;4.9;77
79467;SHT30;68933;49.726;9.226;2024-03-02T03:26:10;4.9;77
79467;SHT30;68933;49.726;9.226;2024-03-02T03:28:23;4.8;78
79467;SHT30;68933;49.726;9.226;2024-03-02T03:30:36;4.8;78
79467;SHT30;68933;49.726;9.226;2024-03-02T03:32:49;4.8;78
79467;SHT30;68933;49.726;9.226;2024-03-02T03:35:02;4.8;78
79467;SHT30;68933;49.726;9.226;2024-03-02T03:37:15;4.7;78
79467;SHT30;68933;49.726;9.226;2024-03-02T03:39:28;4.7;78
79467;SHT30;68933;49.726;9.226;2024-03-02T03:41:41;4.7;78
79467;SHT30;68933;49.726;9.226;2024-03-02T03:43:54;4.7;79
79467;SHT30;68933;49.726;9.226;2024-03-02T03:46:07;4.7;79
79467;SHT30;68933;49.726;9.226;2024-03-02T03:48:20;4.6;79
79467;SHT30;68933;49.726;9.226;2024-03-02T03:50:33;4.6;79
79467;SHT30;68933;49.726;9.226;2024-03-02T03:52:46;4.6;79
79467;SHT30;68933;49.726;9.226;2024-03-02T03:54:59;4.6;79
79467;SHT30;68933;49.726;9.226;2024-03-02T03:57:12;4.6;79
79467;SHT30;68933;49.726;9.226;2024-03-02T03:59:25;4.6;79
79467;SHT30;68933;49.726;9.226;2024-03-02T04:01:38;4.6;79
79467;SHT30;68933;49.726;9.226;2024-03-02T04:03:51;4.6;79
79467;SHT30;68933;49.726;9.226;2024-03-02T04:06:04;4.6;79
79467;SHT30;68933;49.726;9.226;2024-03-02T04:08:17;4.6;79
79467;SHT30;68933;49.726;9.226;2024-03-02T04:10:30;4.6;79
79467;SHT30;68933;49.726;9.226;2024-03-02T04:12:43;4.5;79
79467;SHT30;68933;49.726;9.226;2024-03-02T04:14:56;4.5;79
79467;SHT30;68933;49.726;9.226;2024-03-02T04:17:09;4.5;79
79467;SHT30;68933;49.726;9.226;2024-03-02T04:19:22;4.5;79
79467;SHT30;68933;49.726;9.226;2024-03-02T04:21:35;4.5;79
79467;SHT30;68933;49.726;9.226;2024-03-02T04:23:48;4.5;79
79467;SHT30;68933;49.726;9.226;2024-03-02T04:26:01;4.5;79
79467;SHT30;68933;49.726;9.226;2024-03-02T04:28:14;4.5;79
79467;SHT30;68933;49.726;9.226;2024-03-02T04:30:27;4.5;79
79467;SHT30;68933;49.726;9.226;2024-03-02T04:32:40;4.4;81
79467;SHT30;68933;49.726;9.226;2024-03-02T04:34:53;4.4;81
79467;SHT30;68933;49.726;9.226;2024-03-02T04:37:06;4.4;81
79467;SHT30;68933;49.726;9.226;2024-03-02T04:39:19;4.4;81
79467;SHT30;68933;49.726;9.226;2024-03-02T04:41:32;4.4;81
79467;SHT30;68933;49.726;9.226;2024-03-02T04:43:45;4.4;81
79467;SHT30;68933;49.726;9.226;2024-03-02T04:45:58;4.4;81
79467;SHT30;68933;49.726;9.226;2024-03-02T04:48:11;4.4;81
79467;SHT30;68933;49.726;9.226;2024-03-02T04:50:24;4.4;81
79467;SHT30;68933;49.726;9.226;2024-03-02T04:52:37;4.3;81
79467;SHT30;68933;49.726;9.226;2024-03-02T04:54:50;4.3;81
79467;SHT30;68933;49.726;9.226;2024-03-02T04:57:03;4.3;81
79467;SHT30;68933;49.726;9.226;2024-03-02T04:59:16;4.3;81
79467;SHT30;68933;49.726;9.226;2024-03-02T05:01:29;4.2;81
79467;SHT30;68933;49.726;9.226;2024-03-02T05:03:42;4.2;81
79467;SHT30;68933;49.726;9.226;2024-03-02T05:05:55;4.2;81
79467;SHT30;68933;49.726;9.226;2024-03-02T05:08:08;4.2;81
79467;SHT30;68933;49.726;9.226;2024-03-02T05:10:21;4.2;81
79467;SHT30;68933;49.726;9.226;2024-03-02T05:12:34;4.2;81
79467;SHT30;68933;49.726;9.226;2024-03-02T05:14:47;4.2;81
79467;SHT30;68933;49.726;9.226;2024-03-02T05:17:00;4.2;81
79467;SHT30;68933;49.726;9.226;2024-03-02T05:19:13;4.2;81
79467;SHT30;68933;49.726;9.226;2024-03-02T05:21:26;4.2;81
79467;SHT30;68933;49.726;9.226;2024-03-02T05:23:39;4.2;81
79467;SHT30;68933;49.726;9.226;2024-03-02T05:25:52;4.2;81
79467;SHT30;68933;49.726;9.226;2024-03-02T05:28:05;4.2;81
79467;SHT30;68933;49.726;9.226;2024-03-02T05:30:18;4.2;81
79467;SHT30;68933;49.726;9.226;2024-03-02T05:32:31;4.2;81
79467;SHT30;68933;49.726;9.226;2024-03-02T05:34:44;4.2;81
79467;SHT30;68933;49.726;9.226;2024-03-02T05:36:57;4.2;81
79467;SHT30;68933;49.726;9.226;2024-03-02T05:39:10;4.3;81
79467;SHT30;68933;49.726;9.226;2024-03-02T05:41:23;4.3;81
79467;SHT30;68933;49.726;9.226;2024-03-02T05:43:36;4.3;81
79467;SHT30;68933;49.726;9.226;2024-03-02T05:45:49;4.3;81
79467;SHT30;68933;49.726;9.226;2024-03-02T05:48:02;4.3;81
79467;SHT30;68933;49.726;9.226;2024-03-02T05:50:15;4.4;81
79467;SHT30;68933;49.726;9.226;2024-03-02T05:52:28;4.4;81
79467;SHT30;68933;49.726;9.226;2024-03-02T05:54:41;4.4;81
79467;SHT30;68933;49.726;9.226;2024-03-02T05:56:54;4.4;81
79467;SHT30;68933;49.726;9.226;2024-03-02T05:59:07;4.4;81
79467;SHT30;68933;49.726;9.226;2024-03-02T06:01:20;4.5;82
79467;SHT30;68933;49.726;9.226;2024-03-02T06:03:33;4.5;82
79467;SHT30;68933;49.726;9.226;2024-03-02T06:05:46;4.5;82
79467;SHT30;68933;49.726;9.226;2024-03-02T06:07:59;4.5;82
79467;SHT30;68933;49.726;9.226;2024-03-02T06:10:12;4.5;82
79467;SHT30;68933;49.726;9.226;2024-03-02T06:12:25;4.5;82
79467;SHT30;68933;49.726;9.226;2024-03-02T06:14:38;4.5;82
79467;SHT30;68933;49.726;9.226;2024-03-02T06:16:51;4.6;81
79467;SHT30;68933;49.726;9.226;2024-03-02T06:19:04;4.6;81
79467;SHT30;68933;49.726;9.226;2024-03-02T06:21:17;4.6;81
79467;SHT30;68933;49.726;9.226;2024-03-02T06:23:30;4.6;81
79467;SHT30;68933;49.726;9.226;2024-03-02T06:25:43;4.6;81
79467;SHT30;68933;49.726;9.226;2024-03-02T06:27:56;4.6;81
79467;SHT30;68933;49.726;9.226;2024-03-02T06:30:09;4.6;81
79467;SHT30;68933;49.726;9.226;2024-03-02T06:32:22;4.7;81
79467;SHT30;68933;49.726;9.226;2024-03-02T06:34:35;4.7;81
79467;SHT30;68933;49.726;9.226;2024-03-02T06:36:48;4.7;81
79467;SHT30;68933;49.726;9.226;2024-03-02T06:39:01;4.7;81
79467;SHT30;68933;49.726;9.226;2024-03-02T06:41:14;4.7;81
79467;SHT30;68933;49.726;9.226;2024-03-02T06:43:27;4.7;81
79467;SHT30;68933;49.726;9.226;2024-03-02T06:45:40;4.7;82
79467;SHT30;68933;49.726;9.226;2024-03-02T06:47:53;4.7;82
79467;SHT30;68933;49.726;9.226;2024-03-02T06:50:06;4.7;82
79467;SHT30;68933;49.726;9.226;2024-03-02T06:52:19;4.7;82
79467;SHT30;68933;49.726;9.226;2024-03-02T06:54:32;4.7;82
79467;SHT30;68933;49.726;9.226;2024-03-02T06:56:45;4.7;82
79467;SHT30;68933;49.726;9.226;2024-03-02T06:58:58;4.7;82
79467;SHT30;68933;49.726;9.226;2024-03-02T07:01:11;4.7;82
79467;SHT30;68933;49.726;9.226;2024-03-02T07:03:24;4.7;82
79467;SHT30;68933;49.726;9.226;2024-03-02T07:05:37;4.9;83
79467;SHT30;68933;49.726;9.226;2024-03-02T07:07:50;4.9;83
79467;SHT30;68933;49.726;9.226;2024-03-02T07:10:03;4.9;83
79467;SHT30;68933;49.726;9.226;2024-03-02T07:12:16;4.9;82
79467;SHT30;68933;49.726;9.226;2024-03-02T07:14:29;4.9;82
79467;SHT30;68933;49.726;9.226;2024-03-02T07:16:42;5;82
79467;SHT30;68933;49.726;9.226;2024-03-02T07:18:55;5;82
79467;SHT30;68933;49.726;9.226;2024-03-02T07:21:08;5;82
79467;SHT30;68933;49.726;9.226;2024-03-02T07:23:21;5;82
79467;SHT30;68933;49.726;9.226;2024-03-02T07:25:34;5;82
79467;SHT30;68933;49.726;9.226;2024-03-02T07:27:47;5;82
79467;SHT30;68933;49.726;9.226;2024-03-02T07:30:00;5;82
79467;SHT30;68933;49.726;9.226;2024-03-02T07:32:13;5;83
79467;SHT30;68933;49.726;9.226;2024-03-02T07:34:26;5;83
79467;SHT30;68933;49.726;9.226;2024-03-02T07:36:39;5;83
79467;SHT30;68933;49.726;9.226;2024-03-02T07:38:52;5;83
79467;SHT30;68933;49.726;9.226;2024-03-02T07:41:05;5.5;81
79467;SHT30;68933;49.726;9.226;2024-03-02T07:43:18;5.5;81
79467;SHT30;68933;49.726;9.226;2024-03-02T07:45:31;5.6;81
79467;SHT30;68933;49.726;9.226;2024-03-02T07:47:44;5.6;81
79467;SHT30;68933;49.726;9.226;2024-03-02T07:49:57;5.6;81
79467;SHT30;68933;49.726;9.226;2024-03-02T07:52:10;5.7;81
79467;SHT30;68933;49.726;9.226;2024-03-02T07:54:23;5.7;81
79467;SHT30;68933;49.726;9.226;2024-03-02T07:56:36;5.8;81
79467;SHT30;68933;49.726;9.226;2024-03-02T07:58:49;5.8;81
79467;SHT30;68933;49.726;9.226;2024-03-02T08:01:02;5.8;81
79467;SHT30;68933;49.726;9.226;2024-03-02T08:03:15;5.8;81
79467;SHT30;68933;49.726;9.226;2024-03-02T08:05:28;5.9;81
79467;SHT30;68933;49.726;9.226;2024-03-02T08:07:41;5.9;81
79467;SHT30;68933;49.726;9.226;2024-03-02T08:09:54;6.1;81
79467;SHT30;68933;49.726;9.226;2024-03-02T08:12:07;6.1;81
79467;SHT30;68933;49.726;9.226;2024-03-02T08:14:20;6.1;81
79467;SHT30;68933;49.726;9.226;2024-03-02T08:16:33;6.1;81
79467;SHT30;68933;49.726;9.226;2024-03-02T08:18:46;6.1;81
79467;SHT30;68933;49.726;9.226;2024-03-02T08:20:59;6.2;81
79467;SHT30;68933;49.726;9.226;2024-03-02T08:23:12;6.2;81
79467;SHT30;68933;49.726;9.226;2024-03-02T08:25:25;6.4;81
79467;SHT30;68933;49.726;9.226;2024-03-02T08:27:39;6.4;81
79467;SHT30;68933;49.726;9.226;2024-03-02T08:29:51;6.4;81
79467;SHT30;68933;49.726;9.226;2024-03-02T08:32:04;6.5;80
79467;SHT30;68933;49.726;9.226;2024-03-02T08:34:17;6.5;80
79467;SHT30;68933;49.726;9.226;2024-03-02T08:36:30;6.6;80
79467;SHT30;68933;49.726;9.226;2024-03-02T08:38:43;6.6;80
79467;SHT30;68933;49.726;9.226;2024-03-02T08:40:56;6.6;80
79467;SHT30;68933;49.726;9.226;2024-03-02T08:43:09;6.8;80
79467;SHT30;68933;49.726;9.226;2024-03-02T08:45:22;6.8;80
79467;SHT30;68933;49.726;9.226;2024-03-02T08:47:35;6.9;79
79467;SHT30;68933;49.726;9.226;2024-03-02T08:49:48;6.9;79
79467;SHT30;68933;49.726;9.226;2024-03-02T08:52:01;7;79
79467;SHT30;68933;49.726;9.226;2024-03-02T08:54:14;7;79
79467;SHT30;68933;49.726;9.226;2024-03-02T08:56:27;7;79
79467;SHT30;68933;49.726;9.226;2024-03-02T08:58:40;7;79
79467;SHT30;68933;49.726;9.226;2024-03-02T09:00:53;7;79
79467;SHT30;68933;49.726;9.226;2024-03-02T09:03:06;7.1;78
79467;SHT30;68933;49.726;9.226;2024-03-02T09:05:19;7.1;78
79467;SHT30;68933;49.726;9.226;2024-03-02T09:07:32;7.2;78
79467;SHT30;68933;49.726;9.226;2024-03-02T09:09:45;7.2;78
79467;SHT30;68933;49.726;9.226;2024-03-02T09:11:58;7.2;78
79467;SHT30;68933;49.726;9.226;2024-03-02T09:14:11;7.5;78
79467;SHT30;68933;49.726;9.226;2024-03-02T09:16:24;7.5;78
79467;SHT30;68933;49.726;9.226;2024-03-02T09:18:37;7.6;78
79467;SHT30;68933;49.726;9.226;2024-03-02T09:20:50;7.6;78
79467;SHT30;68933;49.726;9.226;2024-03-02T09:23:03;7.6;78
79467;SHT30;68933;49.726;9.226;2024-03-02T09:25:16;8;78
79467;SHT30;68933;49.726;9.226;2024-03-02T09:27:29;8;78
79467;SHT30;68933;49.726;9.226;2024-03-02T09:29:42;8.4;77
79467;SHT30;68933;49.726;9.226;2024-03-02T09:31:55;8.4;77
79467;SHT30;68933;49.726;9.226;2024-03-02T09:34:08;8.8;75
79467;SHT30;68933;49.726;9.226;2024-03-02T09:36:21;8.8;75
79467;SHT30;68933;49.726;9.226;2024-03-02T09:38:34;9;75
79467;SHT30;68933;49.726;9.226;2024-03-02T09:40:47;9;75
79467;SHT30;68933;49.726;9.226;2024-03-02T09:43:00;9;75
79467;SHT30;68933;49.726;9.226;2024-03-02T09:45:13;9.5;74
79467;SHT30;68933;49.726;9.226;2024-03-02T09:47:26;9.5;74
79467;SHT30;68933;49.726;9.226;2024-03-02T09:49:39;9.8;74
79467;SHT30;68933;49.726;9.226;2024-03-02T09:51:52;9.8;74
79467;SHT30;68933;49.726;9.226;2024-03-02T09:54:05;9.8;74
79467;SHT30;68933;49.726;9.226;2024-03-02T09:56:18;10.3;72
79467;SHT30;68933;49.726;9.226;2024-03-02T09:58:31;10.3;72
79467;SHT30;68933;49.726;9.226;2024-03-02T10:00:44;10.7;71
79467;SHT30;68933;49.726;9.226;2024-03-02T10:02:57;10.7;71
79467;SHT30;68933;49.726;9.226;2024-03-02T10:05:10;10.9;70
79467;SHT30;68933;49.726;9.226;2024-03-02T10:07:23;10.9;70
79467;SHT30;68933;49.726;9.226;2024-03-02T10:09:36;11.3;68
79467;SHT30;68933;49.726;9.226;2024-03-02T10:11:49;11.3;68
79467;SHT30;68933;49.726;9.226;2024-03-02T10:14:04;11.3;68
79467;SHT30;68933;49.726;9.226;2024-03-02T10:16:15;11.7;67
79467;SHT30;68933;49.726;9.226;2024-03-02T10:18:28;11.7;67
79467;SHT30;68933;49.726;9.226;2024-03-02T10:20:41;12.1;65
79467;SHT30;68933;49.726;9.226;2024-03-02T10:22:54;12.1;65
79467;SHT30;68933;49.726;9.226;2024-03-02T10:25:07;12.1;65
79467;SHT30;68933;49.726;9.226;2024-03-02T10:27:22;12.3;65
79467;SHT30;68933;49.726;9.226;2024-03-02T10:29:33;12.3;65
79467;SHT30;68933;49.726;9.226;2024-03-02T10:31:46;12.7;63
79467;SHT30;68933;49.726;9.226;2024-03-02T10:33:59;12.7;63
79467;SHT30;68933;49.726;9.226;2024-03-02T10:36:12;13.2;61
79467;SHT30;68933;49.726;9.226;2024-03-02T10:38:25;13.2;61
79467;SHT30;68933;49.726;9.226;2024-03-02T10:40:38;13.7;59
79467;SHT30;68933;49.726;9.226;2024-03-02T10:42:51;13.7;59
79467;SHT30;68933;49.726;9.226;2024-03-02T10:45:04;13.7;59
79467;SHT30;68933;49.726;9.226;2024-03-02T10:47:17;13.8;59
79467;SHT30;68933;49.726;9.226;2024-03-02T10:49:30;13.8;59
79467;SHT30;68933;49.726;9.226;2024-03-02T10:51:43;14.1;57
79467;SHT30;68933;49.726;9.226;2024-03-02T10:53:56;14.1;57
79467;SHT30;68933;49.726;9.226;2024-03-02T10:56:09;14.2;57
79467;SHT30;68933;49.726;9.226;2024-03-02T10:58:22;14.2;57
79467;SHT30;68933;49.726;9.226;2024-03-02T11:00:35;14.5;56
79467;SHT30;68933;49.726;9.226;2024-03-02T11:02:50;14.5;56
79467;SHT30;68933;49.726;9.226;2024-03-02T11:05:01;14.7;56
79467;SHT30;68933;49.726;9.226;2024-03-02T11:07:14;14.7;56
79467;SHT30;68933;49.726;9.226;2024-03-02T11:09:27;14.7;56
79467;SHT30;68933;49.726;9.226;2024-03-02T11:11:40;15.2;54
79467;SHT30;68933;49.726;9.226;2024-03-02T11:13:53;15.2;54
79467;SHT30;68933;49.726;9.226;2024-03-02T11:16:08;15.5;53
79467;SHT30;68933;49.726;9.226;2024-03-02T11:18:19;15.5;53
79467;SHT30;68933;49.726;9.226;2024-03-02T11:20:32;15.7;52
79467;SHT30;68933;49.726;9.226;2024-03-02T11:22:45;15.7;52
79467;SHT30;68933;49.726;9.226;2024-03-02T11:24:58;16.1;52
79467;SHT30;68933;49.726;9.226;2024-03-02T11:27:11;16.1;52
79467;SHT30;68933;49.726;9.226;2024-03-02T11:29:42;16.1;52
79467;SHT30;68933;49.726;9.226;2024-03-02T11:31:57;16.5;50
79467;SHT30;68933;49.726;9.226;2024-03-02T11:33:50;16.5;50
79467;SHT30;68933;49.726;9.226;2024-03-02T11:36:03;16.9;49
79467;SHT30;68933;49.726;9.226;2024-03-02T11:38:16;16.9;49
79467;SHT30;68933;49.726;9.226;2024-03-02T11:40:29;16.9;49
79467;SHT30;68933;49.726;9.226;2024-03-02T11:42:42;17.1;49
79467;SHT30;68933;49.726;9.226;2024-03-02T11:44:55;17.1;49
79467;SHT30;68933;49.726;9.226;2024-03-02T11:47:08;17.4;48
79467;SHT30;68933;49.726;9.226;2024-03-02T11:49:31;17.4;48
79467;SHT30;68933;49.726;9.226;2024-03-02T11:51:34;17.7;46
79467;SHT30;68933;49.726;9.226;2024-03-02T11:53:47;17.7;46
79467;SHT30;68933;49.726;9.226;2024-03-02T11:56:00;17.7;46
79467;SHT30;68933;49.726;9.226;2024-03-02T11:58:13;17.9;46
79467;SHT30;68933;49.726;9.226;2024-03-02T12:00:26;17.9;46
79467;SHT30;68933;49.726;9.226;2024-03-02T12:02:39;18;45
79467;SHT30;68933;49.726;9.226;2024-03-02T12:04:52;18;45
79467;SHT30;68933;49.726;9.226;2024-03-02T12:07:05;18;45
79467;SHT30;68933;49.726;9.226;2024-03-02T12:09:18;18.3;45
79467;SHT30;68933;49.726;9.226;2024-03-02T12:11:31;18.3;45
79467;SHT30;68933;49.726;9.226;2024-03-02T12:13:51;18.7;45
79467;SHT30;68933;49.726;9.226;2024-03-02T12:15:57;18.7;45
79467;SHT30;68933;49.726;9.226;2024-03-02T12:18:10;18.9;44
79467;SHT30;68933;49.726;9.226;2024-03-02T12:20:23;18.9;44
79467;SHT30;68933;49.726;9.226;2024-03-02T12:22:36;18.9;44
79467;SHT30;68933;49.726;9.226;2024-03-02T12:24:49;19;44
79467;SHT30;68933;49.726;9.226;2024-03-02T12:27:02;19;44
79467;SHT30;68933;49.726;9.226;2024-03-02T12:29:15;19.3;44
79467;SHT30;68933;49.726;9.226;2024-03-02T12:31:28;19.3;44
79467;SHT30;68933;49.726;9.226;2024-03-02T12:33:41;19.3;44
79467;SHT30;68933;49.726;9.226;2024-03-02T12:35:54;19.6;42
79467;SHT30;68933;49.726;9.226;2024-03-02T12:38:07;19.6;42
79467;SHT30;68933;49.726;9.226;2024-03-02T12:40:20;19.6;41
79467;SHT30;68933;49.726;9.226;2024-03-02T12:42:33;19.6;41
79467;SHT30;68933;49.726;9.226;2024-03-02T12:44:46;20;42
79467;SHT30;68933;49.726;9.226;2024-03-02T12:46:59;20;42
79467;SHT30;68933;49.726;9.226;2024-03-02T12:49:12;20.2;41
79467;SHT30;68933;49.726;9.226;2024-03-02T12:51:25;20.2;41
79467;SHT30;68933;49.726;9.226;2024-03-02T12:53:38;20.2;41
79467;SHT30;68933;49.726;9.226;2024-03-02T12:55:51;20.3;41
79467;SHT30;68933;49.726;9.226;2024-03-02T12:58:04;20.3;41
79467;SHT30;68933;49.726;9.226;2024-03-02T13:00:17;20.5;40
79467;SHT30;68933;49.726;9.226;2024-03-02T13:02:30;20.5;40
79467;SHT30;68933;49.726;9.226;2024-03-02T13:04:43;20.7;38
79467;SHT30;68933;49.726;9.226;2024-03-02T13:06:56;20.7;38
79467;SHT30;68933;49.726;9.226;2024-03-02T13:09:09;20.7;38
79467;SHT30;68933;49.726;9.226;2024-03-02T13:11:22;20.7;37
79467;SHT30;68933;49.726;9.226;2024-03-02T13:13:35;20.7;37
79467;SHT30;68933;49.726;9.226;2024-03-02T13:15:48;20.8;36
79467;SHT30;68933;49.726;9.226;2024-03-02T13:18:01;20.8;36
79467;SHT30;68933;49.726;9.226;2024-03-02T13:20:14;20.8;37
79467;SHT30;68933;49.726;9.226;2024-03-02T13:22:27;20.8;37
79467;SHT30;68933;49.726;9.226;2024-03-02T13:24:40;20.8;37
79467;SHT30;68933;49.726;9.226;2024-03-02T13:26:53;20.8;37
79467;SHT30;68933;49.726;9.226;2024-03-02T13:29:06;20.8;37
79467;SHT30;68933;49.726;9.226;2024-03-02T13:31:19;20.9;37
79467;SHT30;68933;49.726;9.226;2024-03-02T13:33:32;20.9;37
79467;SHT30;68933;49.726;9.226;2024-03-02T13:35:45;21.3;38
79467;SHT30;68933;49.726;9.226;2024-03-02T13:37:58;21.3;38
79467;SHT30;68933;49.726;9.226;2024-03-02T13:40:11;21.3;38
79467;SHT30;68933;49.726;9.226;2024-03-02T13:42:24;21.5;38
79467;SHT30;68933;49.726;9.226;2024-03-02T13:44:37;21.5;38
79467;SHT30;68933;49.726;9.226;2024-03-02T13:46:50;21.5;38
79467;SHT30;68933;49.726;9.226;2024-03-02T13:49:03;21.6;38
79467;SHT30;68933;49.726;9.226;2024-03-02T13:51:16;21.6;38
79467;SHT30;68933;49.726;9.226;2024-03-02T13:53:29;21.6;37
79467;SHT30;68933;49.726;9.226;2024-03-02T13:55:42;21.6;37
79467;SHT30;68933;49.726;9.226;2024-03-02T13:57:55;21.6;37
79467;SHT30;68933;49.726;9.226;2024-03-02T14:00:08;21.6;37
79467;SHT30;68933;49.726;9.226;2024-03-02T14:02:21;21.6;37
79467;SHT30;68933;49.726;9.226;2024-03-02T14:04:34;22.1;36
79467;SHT30;68933;49.726;9.226;2024-03-02T14:06:47;22.1;36
79467;SHT30;68933;49.726;9.226;2024-03-02T14:09:00;22.4;36
79467;SHT30;68933;49.726;9.226;2024-03-02T14:11:13;22.4;36
79467;SHT30;68933;49.726;9.226;2024-03-02T14:13:26;22.4;36
79467;SHT30;68933;49.726;9.226;2024-03-02T14:15:39;22.4;36
79467;SHT30;68933;49.726;9.226;2024-03-02T14:17:52;22.4;36
79467;SHT30;68933;49.726;9.226;2024-03-02T14:20:05;22.4;36
79467;SHT30;68933;49.726;9.226;2024-03-02T14:22:18;22.4;36
79467;SHT30;68933;49.726;9.226;2024-03-02T14:24:31;22.6;33
79467;SHT30;68933;49.726;9.226;2024-03-02T14:26:44;22.6;33
79467;SHT30;68933;49.726;9.226;2024-03-02T14:28:57;22.5;34
79467;SHT30;68933;49.726;9.226;2024-03-02T14:31:10;22.5;34
79467;SHT30;68933;49.726;9.226;2024-03-02T14:33:23;22.5;34
79467;SHT30;68933;49.726;9.226;2024-03-02T14:35:36;22.5;33
79467;SHT30;68933;49.726;9.226;2024-03-02T14:37:49;22.5;33
79467;SHT30;68933;49.726;9.226;2024-03-02T14:40:02;22.4;33
79467;SHT30;68933;49.726;9.226;2024-03-02T14:42:15;22.4;33
79467;SHT30;68933;49.726;9.226;2024-03-02T14:44:28;22.3;33
79467;SHT30;68933;49.726;9.226;2024-03-02T14:46:41;22.3;33
79467;SHT30;68933;49.726;9.226;2024-03-02T14:48:54;22.2;34
79467;SHT30;68933;49.726;9.226;2024-03-02T14:51:07;22.2;34
79467;SHT30;68933;49.726;9.226;2024-03-02T14:53:20;22.2;34
79467;SHT30;68933;49.726;9.226;2024-03-02T14:55:33;22.4;33
79467;SHT30;68933;49.726;9.226;2024-03-02T14:57:46;22.4;33
79467;SHT30;68933;49.726;9.226;2024-03-02T14:59:59;22.5;32
79467;SHT30;68933;49.726;9.226;2024-03-02T15:02:12;22.5;32
79467;SHT30;68933;49.726;9.226;2024-03-02T15:04:25;22.5;32
79467;SHT30;68933;49.726;9.226;2024-03-02T15:06:38;22.7;30
79467;SHT30;68933;49.726;9.226;2024-03-02T15:08:51;22.7;30
79467;SHT30;68933;49.726;9.226;2024-03-02T15:11:04;22.4;32
79467;SHT30;68933;49.726;9.226;2024-03-02T15:13:17;22.4;32
79467;SHT30;68933;49.726;9.226;2024-03-02T15:15:30;22.1;30